Time;durP1;ratioP1;P1;durP2;ratioP2;P2;SDS_P1;SDS_P2;PMS_P1;PMS_P2;Temp;Humidity;BMP_temperature;BMP_pressure;BME280_temperature;BME280_humidity;BME280_pressure;Samples;Min_cycle;Max_cycle;Signal;HPM_P1;HPM_P2
2022/07/11 00:01:44;;;;;;;7.80;4.55;;;;;;;;;;5022962;28;20037;-72
2022/07/11 00:04:10;;;;;;;6.55;3.90;;;;;;;;;;5021395;28;20021;-73
2022/07/11 00:06:35;;;;;;;7.07;4.00;;;;;;;;;;5020442;28;20060;-73
2022/07/11 00:09:01;;;;;;;6.72;4.25;;;;;;;;;;5020563;28;20037;-73
2022/07/11 00:11:26;;;;;;;7.75;4.43;;;;;;;;;;5021882;28;20060;-73
2022/07/11 00:13:51;;;;;;;8.00;4.50;;;;;;;;;;5019354;28;20037;-73
2022/07/11 00:16:17;;;;;;;7.50;4.03;;;;;;;;;;5017983;28;20027;-72
2022/07/11 00:18:42;;;;;;;5.53;3.95;;;;;;;;;;5026037;28;20099;-74
2022/07/11 00:21:07;;;;;;;6.57;4.05;;;;;;;;;;5023215;28;20029;-72
2022/07/11 00:23:33;;;;;;;6.80;3.90;;;;;;;;;;5020846;28;20032;-73
2022/07/11 00:25:58;;;;;;;7.95;4.43;;;;;;;;;;5019259;28;20489;-74
2022/07/11 00:28:23;;;;;;;6.40;4.20;;;;;;;;;;5017909;28;20080;-75
2022/07/11 00:30:49;;;;;;;9.38;4.55;;;;;;;;;;5016857;28;20045;-72
2022/07/11 00:33:14;;;;;;;9.35;4.25;;;;;;;;;;5026149;28;20055;-72
2022/07/11 00:35:40;;;;;;;6.85;4.40;;;;;;;;;;5016643;28;20089;-72
2022/07/11 00:38:05;;;;;;;6.32;4.18;;;;;;;;;;5022176;28;20029;-74
2022/07/11 00:40:30;;;;;;;7.03;4.50;;;;;;;;;;5022962;28;20462;-72
2022/07/11 00:42:56;;;;;;;7.80;4.43;;;;;;;;;;5021718;28;20029;-73
2022/07/11 00:45:21;;;;;;;6.80;4.25;;;;;;;;;;5017751;28;20537;-74
2022/07/11 00:47:47;;;;;;;6.75;4.13;;;;;;;;;;5020773;28;20029;-73
2022/07/11 00:50:13;;;;;;;6.57;4.20;;;;;;;;;;5018736;28;20036;-72
2022/07/11 00:52:40;;;;;;;6.85;4.50;;;;;;;;;;5021417;28;20037;-74
2022/07/11 00:55:06;;;;;;;8.57;4.20;;;;;;;;;;5018448;28;20029;-73
2022/07/11 00:57:33;;;;;;;7.32;4.40;;;;;;;;;;5021508;28;20024;-72
2022/07/11 00:59:59;;;;;;;6.82;4.60;;;;;;;;;;5021273;28;20037;-72
2022/07/11 01:02:24;;;;;;;6.07;4.30;;;;;;;;;;5023116;28;20025;-72
2022/07/11 01:04:50;;;;;;;6.75;4.47;;;;;;;;;;5022001;28;20022;-72
2022/07/11 01:07:16;;;;;;;6.45;4.32;;;;;;;;;;5017964;28;20477;-72
2022/07/11 01:09:41;;;;;;;9.95;4.70;;;;;;;;;;5026968;28;20033;-72
2022/07/11 01:12:07;;;;;;;6.38;4.55;;;;;;;;;;5022554;28;20021;-73
2022/07/11 01:14:32;;;;;;;8.70;4.53;;;;;;;;;;5022302;28;20113;-72
2022/07/11 01:16:58;;;;;;;8.13;4.65;;;;;;;;;;5024053;28;20172;-73
2022/07/11 01:19:23;;;;;;;7.43;4.75;;;;;;;;;;5027484;28;20037;-74
2022/07/11 01:21:51;;;;;;;9.52;4.85;;;;;;;;;;5023756;28;20030;-72
2022/07/11 01:24:18;;;;;;;6.00;4.30;;;;;;;;;;5026819;28;20041;-74
2022/07/11 01:26:45;;;;;;;7.95;4.72;;;;;;;;;;5038392;28;20021;-73
2022/07/11 01:29:12;;;;;;;7.78;4.50;;;;;;;;;;5022036;28;20496;-72
2022/07/11 01:31:39;;;;;;;5.90;3.97;;;;;;;;;;5024726;28;20045;-72
2022/07/11 01:34:04;;;;;;;8.85;4.30;;;;;;;;;;5018628;28;20162;-72
2022/07/11 01:36:30;;;;;;;7.78;4.47;;;;;;;;;;5019626;28;20083;-72
2022/07/11 01:38:55;;;;;;;7.05;4.40;;;;;;;;;;5022981;28;20038;-73
2022/07/11 01:41:21;;;;;;;7.70;4.50;;;;;;;;;;5021177;28;20033;-72
2022/07/11 01:43:46;;;;;;;8.88;4.25;;;;;;;;;;5018828;28;20124;-72
2022/07/11 01:46:12;;;;;;;6.07;3.78;;;;;;;;;;5020737;28;20032;-72
2022/07/11 01:48:37;;;;;;;6.93;4.07;;;;;;;;;;5027094;28;20026;-72
2022/07/11 01:51:03;;;;;;;7.13;4.10;;;;;;;;;;5021979;28;20041;-72
2022/07/11 01:53:28;;;;;;;6.82;3.60;;;;;;;;;;5023561;28;20029;-74
2022/07/11 01:55:53;;;;;;;6.85;3.55;;;;;;;;;;5021932;28;20036;-74
2022/07/11 01:58:19;;;;;;;6.45;3.45;;;;;;;;;;5026012;28;20029;-74
2022/07/11 02:00:44;;;;;;;7.57;3.58;;;;;;;;;;5027295;28;20033;-74
2022/07/11 02:03:10;;;;;;;6.50;3.53;;;;;;;;;;5027538;28;20398;-72
2022/07/11 02:05:38;;;;;;;6.60;2.97;;;;;;;;;;5021315;28;20025;-73
2022/07/11 02:08:14;;;;;;;9.38;3.60;;;;;;;;;;5025487;28;20052;-73
2022/07/11 02:10:50;;;;;;;6.63;3.13;;;;;;;;;;5025288;28;20052;-72
2022/07/11 02:13:21;;;;;;;6.43;2.92;;;;;;;;;;5026202;28;20482;-72
2022/07/11 02:15:49;;;;;;;5.35;2.88;;;;;;;;;;5025726;28;20524;-73
2022/07/11 02:18:14;;;;;;;6.35;3.08;;;;;;;;;;5024965;28;20569;-73
2022/07/11 02:20:41;;;;;;;5.70;3.00;;;;;;;;;;5021202;28;20037;-73
2022/07/11 02:23:07;;;;;;;7.03;2.90;;;;;;;;;;5024543;28;20087;-74
2022/07/11 02:25:34;;;;;;;6.10;3.15;;;;;;;;;;5022276;28;20068;-72
2022/07/11 02:28:01;;;;;;;7.10;2.97;;;;;;;;;;5024047;28;20017;-73
2022/07/11 02:30:26;;;;;;;5.82;2.97;;;;;;;;;;5031508;28;20513;-72
2022/07/11 02:32:52;;;;;;;5.07;2.72;;;;;;;;;;5027017;28;20103;-74
2022/07/11 02:35:18;;;;;;;7.55;2.75;;;;;;;;;;5023207;28;20042;-73
2022/07/11 02:37:43;;;;;;;6.50;2.80;;;;;;;;;;5024084;28;20060;-72
2022/07/11 02:40:09;;;;;;;4.75;2.40;;;;;;;;;;5021960;28;20057;-73
2022/07/11 02:42:35;;;;;;;4.90;2.63;;;;;;;;;;5027730;28;20040;-72
2022/07/11 02:45:01;;;;;;;5.57;3.13;;;;;;;;;;5025927;28;20059;-74
2022/07/11 02:47:26;;;;;;;4.70;2.58;;;;;;;;;;5024819;28;20034;-74
2022/07/11 02:49:52;;;;;;;6.43;2.40;;;;;;;;;;5027280;28;20603;-72
2022/07/11 02:52:17;;;;;;;5.97;2.80;;;;;;;;;;5017352;28;20505;-74
2022/07/11 02:54:42;;;;;;;4.03;2.47;;;;;;;;;;5023367;28;20090;-72
2022/07/11 02:57:08;;;;;;;6.15;2.42;;;;;;;;;;5023269;28;20068;-72
2022/07/11 02:59:33;;;;;;;5.65;2.65;;;;;;;;;;5025061;28;20022;-74
2022/07/11 03:01:59;;;;;;;6.95;2.33;;;;;;;;;;5025556;28;20095;-72
2022/07/11 03:04:24;;;;;;;4.78;2.30;;;;;;;;;;5023513;28;20684;-72
2022/07/11 03:06:51;;;;;;;4.43;2.20;;;;;;;;;;5024125;28;20025;-74
2022/07/11 03:09:16;;;;;;;3.67;2.10;;;;;;;;;;5019212;28;20037;-73
2022/07/11 03:11:42;;;;;;;5.95;2.03;;;;;;;;;;5019789;28;20037;-73
2022/07/11 03:14:09;;;;;;;4.78;2.22;;;;;;;;;;5025994;28;20063;-72
2022/07/11 03:16:34;;;;;;;4.45;2.08;;;;;;;;;;5018938;28;20359;-74
2022/07/11 03:18:59;;;;;;;4.72;2.10;;;;;;;;;;5031680;28;20036;-73
2022/07/11 03:21:25;;;;;;;4.65;2.00;;;;;;;;;;5018918;28;20125;-73
2022/07/11 03:23:50;;;;;;;4.53;2.13;;;;;;;;;;5022534;28;20033;-73
2022/07/11 03:26:17;;;;;;;4.47;2.20;;;;;;;;;;5018203;28;20048;-72
2022/07/11 03:28:43;;;;;;;4.60;1.85;;;;;;;;;;5019743;28;20034;-72
2022/07/11 03:31:08;;;;;;;3.80;2.00;;;;;;;;;;5020513;28;20045;-72
2022/07/11 03:33:33;;;;;;;3.42;1.98;;;;;;;;;;5024504;28;20036;-72
2022/07/11 03:35:59;;;;;;;4.00;2.03;;;;;;;;;;5021219;28;20446;-74
2022/07/11 03:38:25;;;;;;;5.63;2.28;;;;;;;;;;5020717;28;20033;-73
2022/07/11 03:40:50;;;;;;;4.78;2.08;;;;;;;;;;5021969;28;20040;-72
2022/07/11 03:43:16;;;;;;;4.32;2.55;;;;;;;;;;5024013;28;20049;-72
2022/07/11 03:45:42;;;;;;;3.60;1.92;;;;;;;;;;5024149;28;20057;-74
2022/07/11 03:48:07;;;;;;;3.58;1.88;;;;;;;;;;5024762;28;20030;-72
2022/07/11 03:50:34;;;;;;;5.32;2.10;;;;;;;;;;5030100;28;20021;-72
2022/07/11 03:53:00;;;;;;;4.95;1.77;;;;;;;;;;5021976;28;20088;-73
2022/07/11 03:55:25;;;;;;;5.47;1.88;;;;;;;;;;5028539;28;20029;-74
2022/07/11 03:57:51;;;;;;;2.78;1.60;;;;;;;;;;5026438;28;20037;-73
2022/07/11 04:00:16;;;;;;;2.47;1.42;;;;;;;;;;5023864;28;20489;-73
2022/07/11 04:02:42;;;;;;;2.75;1.17;;;;;;;;;;5025039;28;20018;-73
2022/07/11 04:05:07;;;;;;;5.20;1.30;;;;;;;;;;5023149;28;20029;-72
2022/07/11 04:07:33;;;;;;;3.90;1.50;;;;;;;;;;5027385;28;20098;-73
2022/07/11 04:09:59;;;;;;;4.25;1.50;;;;;;;;;;5020643;28;20045;-72
2022/07/11 04:12:24;;;;;;;3.22;1.45;;;;;;;;;;5021642;28;20025;-72
2022/07/11 04:14:50;;;;;;;2.15;1.20;;;;;;;;;;5024123;28;20060;-72
2022/07/11 04:17:15;;;;;;;2.88;1.27;;;;;;;;;;5020172;28;20018;-73
2022/07/11 04:19:42;;;;;;;5.20;2.35;;;;;;;;;;5020152;28;20048;-74
2022/07/11 04:22:08;;;;;;;3.00;1.50;;;;;;;;;;5022299;28;20061;-72
2022/07/11 04:24:33;;;;;;;4.65;1.52;;;;;;;;;;5015753;28;20061;-73
2022/07/11 04:26:59;;;;;;;3.50;1.20;;;;;;;;;;5025164;28;20482;-73
2022/07/11 04:29:25;;;;;;;2.92;1.40;;;;;;;;;;5022512;28;20112;-72
2022/07/11 04:31:50;;;;;;;4.05;1.63;;;;;;;;;;5017424;28;20052;-73
2022/07/11 04:34:16;;;;;;;3.30;1.60;;;;;;;;;;5020401;28;20497;-72
2022/07/11 04:36:42;;;;;;;3.70;1.10;;;;;;;;;;5019306;28;20484;-73
2022/07/11 04:39:08;;;;;;;2.97;1.42;;;;;;;;;;5020235;28;20057;-72
2022/07/11 04:41:33;;;;;;;2.95;1.20;;;;;;;;;;5019160;28;20121;-73
2022/07/11 04:43:59;;;;;;;2.72;1.30;;;;;;;;;;5016791;28;20030;-73
2022/07/11 04:46:24;;;;;;;3.00;1.23;;;;;;;;;;5022129;28;20037;-72
2022/07/11 04:48:49;;;;;;;3.83;1.20;;;;;;;;;;5022640;28;20112;-72
2022/07/11 04:51:16;;;;;;;2.22;1.15;;;;;;;;;;5018840;28;20028;-73
2022/07/11 04:53:42;;;;;;;1.70;1.00;;;;;;;;;;5021239;28;20030;-74
2022/07/11 04:56:07;;;;;;;3.63;1.30;;;;;;;;;;5016882;28;20022;-72
2022/07/11 04:58:32;;;;;;;2.28;1.10;;;;;;;;;;5026634;28;20064;-72
2022/07/11 05:00:58;;;;;;;3.03;1.10;;;;;;;;;;5023337;28;20100;-72
2022/07/11 05:03:24;;;;;;;2.25;1.02;;;;;;;;;;5021430;28;20030;-72
2022/07/11 05:05:50;;;;;;;2.00;1.27;;;;;;;;;;5021671;28;20037;-72
2022/07/11 05:08:15;;;;;;;1.67;1.10;;;;;;;;;;5026635;28;20029;-73
2022/07/11 05:10:40;;;;;;;2.25;1.30;;;;;;;;;;5019238;28;22275;-72
2022/07/11 05:13:06;;;;;;;2.97;1.10;;;;;;;;;;5025588;28;20041;-72
2022/07/11 05:15:31;;;;;;;2.38;1.20;;;;;;;;;;5018416;28;20559;-74
2022/07/11 05:17:57;;;;;;;1.95;0.98;;;;;;;;;;5012891;28;20029;-71
2022/07/11 05:20:22;;;;;;;2.20;1.10;;;;;;;;;;5027227;28;20254;-72
2022/07/11 05:22:48;;;;;;;3.13;1.30;;;;;;;;;;5027868;28;20072;-72
2022/07/11 05:25:14;;;;;;;2.60;1.38;;;;;;;;;;5020974;28;20088;-72
2022/07/11 05:27:39;;;;;;;3.55;1.23;;;;;;;;;;5020328;28;20086;-74
2022/07/11 05:30:05;;;;;;;2.50;1.20;;;;;;;;;;5020411;28;20120;-73
2022/07/11 05:32:31;;;;;;;2.58;1.40;;;;;;;;;;5015256;28;20635;-72
2022/07/11 05:35:02;;;;;;;3.45;1.20;;;;;;;;;;5025046;28;20040;-74
2022/07/11 05:37:28;;;;;;;3.80;1.42;;;;;;;;;;5026677;28;20041;-73
2022/07/11 05:39:53;;;;;;;3.72;1.40;;;;;;;;;;5026206;28;20025;-75
2022/07/11 05:42:19;;;;;;;3.42;1.50;;;;;;;;;;5018513;28;20156;-73
2022/07/11 05:44:44;;;;;;;4.70;1.65;;;;;;;;;;5017359;28;20449;-72
2022/07/11 05:47:09;;;;;;;5.20;1.30;;;;;;;;;;5017204;28;20029;-72
2022/07/11 05:49:35;;;;;;;2.60;1.33;;;;;;;;;;5023539;28;20021;-72
2022/07/11 05:52:01;;;;;;;3.38;1.67;;;;;;;;;;5020145;28;20102;-72
2022/07/11 05:54:28;;;;;;;3.00;1.27;;;;;;;;;;5023963;28;20029;-72
2022/07/11 05:56:54;;;;;;;2.67;1.25;;;;;;;;;;5024408;28;20167;-73
2022/07/11 05:59:20;;;;;;;3.17;1.35;;;;;;;;;;5026866;28;20028;-72
2022/07/11 06:01:46;;;;;;;2.70;1.38;;;;;;;;;;5019506;28;20493;-72
2022/07/11 06:04:12;;;;;;;3.08;1.30;;;;;;;;;;5022883;28;20038;-72
2022/07/11 06:06:37;;;;;;;1.77;1.20;;;;;;;;;;5026335;28;20517;-73
2022/07/11 06:09:03;;;;;;;2.55;1.10;;;;;;;;;;5041107;28;20381;-73
2022/07/11 06:11:28;;;;;;;2.75;1.20;;;;;;;;;;5025031;28;20424;-74
2022/07/11 06:13:54;;;;;;;1.77;1.05;;;;;;;;;;5027415;28;20036;-74
2022/07/11 06:16:19;;;;;;;3.72;1.20;;;;;;;;;;5025421;28;20562;-72
2022/07/11 06:18:45;;;;;;;2.38;1.30;;;;;;;;;;5018550;28;20155;-73
2022/07/11 06:21:11;;;;;;;1.85;1.10;;;;;;;;;;5022951;28;20406;-72
2022/07/11 06:23:36;;;;;;;1.65;1.00;;;;;;;;;;5026063;28;20029;-72
2022/07/11 06:26:03;;;;;;;2.28;1.40;;;;;;;;;;5025800;28;20029;-73
2022/07/11 06:28:29;;;;;;;1.80;1.20;;;;;;;;;;5020829;28;20122;-74
2022/07/11 06:30:54;;;;;;;2.17;1.23;;;;;;;;;;5020042;28;20899;-72
2022/07/11 06:33:20;;;;;;;2.55;1.30;;;;;;;;;;5021062;28;20386;-72
2022/07/11 06:35:46;;;;;;;1.95;1.35;;;;;;;;;;5027827;28;20032;-73
2022/07/11 06:38:13;;;;;;;2.22;1.40;;;;;;;;;;5023883;28;20504;-72
2022/07/11 06:40:39;;;;;;;2.88;1.65;;;;;;;;;;5021722;28;20128;-72
2022/07/11 06:43:06;;;;;;;3.08;1.55;;;;;;;;;;5023089;28;20120;-74
2022/07/11 06:45:32;;;;;;;3.83;1.63;;;;;;;;;;5015453;28;20449;-72
2022/07/11 06:47:57;;;;;;;2.47;1.58;;;;;;;;;;5028605;28;20120;-73
2022/07/11 06:50:22;;;;;;;4.05;1.70;;;;;;;;;;5015332;28;20021;-72
2022/07/11 06:52:48;;;;;;;3.40;1.50;;;;;;;;;;5015526;28;20478;-73
2022/07/11 06:55:13;;;;;;;3.28;1.73;;;;;;;;;;5023671;28;20021;-72
2022/07/11 06:57:39;;;;;;;2.65;1.73;;;;;;;;;;5025801;28;20078;-72
2022/07/11 07:00:06;;;;;;;3.80;1.83;;;;;;;;;;5026207;28;20088;-73
2022/07/11 07:02:31;;;;;;;3.50;1.80;;;;;;;;;;5023817;28;20052;-72
2022/07/11 07:04:58;;;;;;;2.67;1.50;;;;;;;;;;5024800;28;20111;-72
2022/07/11 07:07:24;;;;;;;3.70;1.80;;;;;;;;;;5026874;28;20030;-74
2022/07/11 07:09:49;;;;;;;3.20;1.92;;;;;;;;;;5019288;28;20022;-74
2022/07/11 07:12:15;;;;;;;3.75;1.98;;;;;;;;;;5019398;28;20082;-73
2022/07/11 07:14:41;;;;;;;3.83;1.83;;;;;;;;;;5017445;28;20477;-72
2022/07/11 07:17:06;;;;;;;3.10;1.80;;;;;;;;;;5022011;28;20026;-74
2022/07/11 07:19:32;;;;;;;3.95;2.13;;;;;;;;;;5023414;28;20079;-73
2022/07/11 07:21:57;;;;;;;3.25;2.05;;;;;;;;;;5020650;28;20029;-72
2022/07/11 07:24:22;;;;;;;3.38;2.10;;;;;;;;;;5022757;28;20497;-73
2022/07/11 07:26:48;;;;;;;3.33;2.00;;;;;;;;;;5017750;28;20516;-72
2022/07/11 07:29:13;;;;;;;4.70;2.10;;;;;;;;;;5018241;28;20037;-74
2022/07/11 07:31:39;;;;;;;3.13;1.90;;;;;;;;;;5021935;28;20045;-74
2022/07/11 07:34:05;;;;;;;4.18;1.98;;;;;;;;;;5025037;28;20037;-72
2022/07/11 07:36:30;;;;;;;2.40;1.60;;;;;;;;;;5014265;28;20081;-74
2022/07/11 07:38:55;;;;;;;3.95;1.92;;;;;;;;;;5015448;28;20028;-73
2022/07/11 07:41:21;;;;;;;3.40;2.00;;;;;;;;;;5024347;28;20037;-74
2022/07/11 07:43:48;;;;;;;3.05;1.70;;;;;;;;;;5028184;28;20033;-73
2022/07/11 07:46:14;;;;;;;3.45;1.70;;;;;;;;;;5020392;28;20551;-74
2022/07/11 07:48:39;;;;;;;2.50;1.50;;;;;;;;;;5018010;28;20021;-72
2022/07/11 07:51:05;;;;;;;2.95;1.50;;;;;;;;;;5023957;28;20117;-72
2022/07/11 07:53:30;;;;;;;1.98;1.10;;;;;;;;;;5022471;28;20025;-73
2022/07/11 07:55:56;;;;;;;1.55;1.08;;;;;;;;;;5024250;28;20056;-74
2022/07/11 07:58:21;;;;;;;1.58;1.00;;;;;;;;;;5019775;28;20033;-72
2022/07/11 08:03:31;;;;;;;1.77;0.95;;;;;;;;;;5018125;28;20404;-72
2022/07/11 08:05:56;;;;;;;1.20;0.88;;;;;;;;;;5022565;28;20037;-72
2022/07/11 08:08:22;;;;;;;1.92;0.80;;;;;;;;;;5023365;28;20562;-72
2022/07/11 08:10:47;;;;;;;2.28;1.00;;;;;;;;;;5028756;28;20033;-72
2022/07/11 08:13:13;;;;;;;0.90;0.70;;;;;;;;;;5017545;28;20033;-72
2022/07/11 08:15:38;;;;;;;1.00;0.70;;;;;;;;;;5024947;28;20378;-74
2022/07/11 08:18:03;;;;;;;2.65;0.60;;;;;;;;;;5017125;28;20104;-73
2022/07/11 08:20:29;;;;;;;0.88;0.70;;;;;;;;;;5022292;28;20030;-74
2022/07/11 08:23:00;;;;;;;1.45;0.70;;;;;;;;;;5027832;28;20040;-72
2022/07/11 08:25:25;;;;;;;1.20;0.65;;;;;;;;;;5016518;28;20056;-72
2022/07/11 08:27:50;;;;;;;0.88;0.70;;;;;;;;;;5018800;28;20053;-74
2022/07/11 08:30:16;;;;;;;0.90;0.60;;;;;;;;;;5021541;28;20026;-72
2022/07/11 08:32:41;;;;;;;1.40;0.80;;;;;;;;;;5018106;28;20103;-72
2022/07/11 08:35:07;;;;;;;1.33;0.88;;;;;;;;;;5017960;28;20033;-73
2022/07/11 08:37:33;;;;;;;1.65;0.80;;;;;;;;;;5026309;28;20036;-74
2022/07/11 08:39:58;;;;;;;1.40;0.70;;;;;;;;;;5011580;28;20029;-72
2022/07/11 08:42:29;;;;;;;0.60;0.60;;;;;;;;;;5023354;28;20038;-72
2022/07/11 08:44:56;;;;;;;0.80;0.60;;;;;;;;;;5019185;28;20032;-72
2022/07/11 08:47:22;;;;;;;0.70;0.52;;;;;;;;;;5018321;28;20041;-72
2022/07/11 08:49:49;;;;;;;0.40;0.40;;;;;;;;;;5016530;28;22182;-72
2022/07/11 08:52:16;;;;;;;0.88;0.63;;;;;;;;;;5011053;28;20040;-72
2022/07/11 08:54:42;;;;;;;1.73;0.80;;;;;;;;;;5019266;28;20033;-73
2022/07/11 08:57:08;;;;;;;1.13;0.60;;;;;;;;;;5019062;28;20417;-73
2022/07/11 08:59:35;;;;;;;1.02;0.63;;;;;;;;;;5019407;28;20022;-72
2022/07/11 09:02:03;;;;;;;1.42;0.63;;;;;;;;;;5018447;28;20041;-73
2022/07/11 09:04:30;;;;;;;0.98;0.60;;;;;;;;;;5014089;28;20095;-72
2022/07/11 09:06:56;;;;;;;0.85;0.50;;;;;;;;;;5017369;28;20124;-73
2022/07/11 09:09:21;;;;;;;1.17;0.70;;;;;;;;;;5024169;28;20109;-72
2022/07/11 09:11:56;;;;;;;0.82;0.60;;;;;;;;;;5022475;28;20519;-72
2022/07/11 09:14:25;;;;;;;1.40;0.80;;;;;;;;;;5010314;28;20038;-72
2022/07/11 09:16:59;;;;;;;1.38;0.75;;;;;;;;;;5014931;28;20037;-72
2022/07/11 09:19:30;;;;;;;0.88;0.70;;;;;;;;;;5014333;28;20032;-72
2022/07/11 09:28:00;;;;;;;1.20;1.00;;;;;;;;;;5014491;28;20056;-72
2022/07/11 09:30:31;;;;;;;1.85;1.00;;;;;;;;;;5024127;28;20021;-72
2022/07/11 09:33:02;;;;;;;1.50;0.90;;;;;;;;;;5020652;28;20106;-72
2022/07/11 09:35:31;;;;;;;1.13;0.70;;;;;;;;;;5022490;28;20411;-73
2022/07/11 09:37:57;;;;;;;0.80;0.65;;;;;;;;;;5018644;28;20159;-72
2022/07/11 09:40:25;;;;;;;0.85;0.68;;;;;;;;;;5023876;28;20155;-73
2022/07/11 09:42:56;;;;;;;1.30;0.60;;;;;;;;;;5025110;28;20041;-72
2022/07/11 09:45:23;;;;;;;2.28;0.95;;;;;;;;;;5024051;28;20036;-72
2022/07/11 09:47:53;;;;;;;0.90;0.60;;;;;;;;;;5019620;28;20059;-72
2022/07/11 09:50:21;;;;;;;1.20;0.70;;;;;;;;;;5020940;28;20022;-72
2022/07/11 09:53:10;;;;;;;1.52;0.80;;;;;;;;;;5021400;28;20084;-73
2022/07/11 09:55:41;;;;;;;0.82;0.60;;;;;;;;;;5024831;28;20044;-72
2022/07/11 09:58:09;;;;;;;0.68;0.60;;;;;;;;;;5024670;28;20088;-72
2022/07/11 10:00:35;;;;;;;0.80;0.60;;;;;;;;;;5018326;28;20038;-72
2022/07/11 10:03:01;;;;;;;0.90;0.60;;;;;;;;;;5027889;28;20037;-72
2022/07/11 10:05:27;;;;;;;0.80;0.60;;;;;;;;;;5018047;28;20549;-72
2022/07/11 10:07:53;;;;;;;0.98;0.60;;;;;;;;;;5030691;28;20032;-72
2022/07/11 10:10:19;;;;;;;0.95;0.75;;;;;;;;;;5019413;28;20029;-72
2022/07/11 10:12:46;;;;;;;1.38;0.70;;;;;;;;;;5014816;28;22094;-73
2022/07/11 10:15:16;;;;;;;1.73;0.90;;;;;;;;;;5025979;28;20040;-72
2022/07/11 10:18:00;;;;;;;1.77;0.95;;;;;;;;;;5027777;28;20040;-72
2022/07/11 10:20:35;;;;;;;0.98;0.70;;;;;;;;;;5030358;28;20045;-72
2022/07/11 10:23:10;;;;;;;2.03;0.60;;;;;;;;;;5031181;28;20040;-72
2022/07/11 10:25:42;;;;;;;1.05;0.70;;;;;;;;;;5025270;28;20363;-72
2022/07/11 10:28:10;;;;;;;1.45;0.80;;;;;;;;;;5023712;28;20036;-72
2022/07/11 10:30:50;;;;;;;1.00;0.70;;;;;;;;;;5022262;28;20072;-73
2022/07/11 10:33:17;;;;;;;1.08;0.70;;;;;;;;;;5023977;28;20041;-72
2022/07/11 10:35:50;;;;;;;1.17;0.60;;;;;;;;;;5021644;28;20025;-72
2022/07/11 10:38:17;;;;;;;0.80;0.60;;;;;;;;;;5026875;28;20037;-72
2022/07/11 10:40:57;;;;;;;1.20;0.70;;;;;;;;;;5028880;28;20077;-72
2022/07/11 10:43:22;;;;;;;0.90;0.60;;;;;;;;;;5023911;28;20025;-72
2022/07/11 10:45:56;;;;;;;0.82;0.80;;;;;;;;;;5022575;28;20477;-73
2022/07/11 10:48:23;;;;;;;1.70;0.88;;;;;;;;;;5027726;28;20022;-73
2022/07/11 10:51:10;;;;;;;1.15;0.65;;;;;;;;;;5018303;28;20366;-72
2022/07/11 10:53:49;;;;;;;1.30;0.90;;;;;;;;;;5026889;28;20028;-72
2022/07/11 10:56:46;;;;;;;1.55;0.70;;;;;;;;;;5020359;28;20087;-73
2022/07/11 10:59:17;;;;;;;1.13;0.80;;;;;;;;;;5017934;28;20143;-73
2022/07/11 11:02:20;;;;;;;0.93;0.80;;;;;;;;;;5026050;28;20025;-72
2022/07/11 11:04:51;;;;;;;2.05;0.80;;;;;;;;;;5039594;28;20032;-73
2022/07/11 11:07:34;;;;;;;2.42;0.70;;;;;;;;;;5034235;28;20038;-72
2022/07/11 11:10:01;;;;;;;0.98;0.70;;;;;;;;;;5017227;28;20140;-73
2022/07/11 11:13:04;;;;;;;0.80;0.70;;;;;;;;;;5016360;28;20065;-72
2022/07/11 11:15:54;;;;;;;1.65;0.70;;;;;;;;;;5024581;28;20029;-72
2022/07/11 11:18:23;;;;;;;1.42;1.00;;;;;;;;;;5022402;28;20083;-72
2022/07/11 11:21:00;;;;;;;1.65;0.60;;;;;;;;;;5021545;28;20125;-72
2022/07/11 11:23:28;;;;;;;1.48;0.80;;;;;;;;;;5021042;28;20075;-72
2022/07/11 11:25:53;;;;;;;1.23;0.60;;;;;;;;;;5019961;28;20064;-73
2022/07/11 11:28:23;;;;;;;1.88;0.65;;;;;;;;;;5027280;28;20026;-72
2022/07/11 11:30:55;;;;;;;0.50;0.50;;;;;;;;;;5020502;28;20037;-73
2022/07/11 11:33:21;;;;;;;0.60;0.50;;;;;;;;;;5017786;28;20046;-72
2022/07/11 11:36:06;;;;;;;0.50;0.50;;;;;;;;;;5018475;28;20560;-73
2022/07/11 11:38:36;;;;;;;0.85;0.50;;;;;;;;;;5018917;28;20112;-73
2022/07/11 11:41:02;;;;;;;1.10;0.60;;;;;;;;;;5028385;28;20037;-72
2022/07/11 11:43:28;;;;;;;0.63;0.55;;;;;;;;;;5021808;28;20036;-73
2022/07/11 11:45:54;;;;;;;1.15;0.63;;;;;;;;;;5025136;28;20041;-74
2022/07/11 11:48:33;;;;;;;1.05;0.50;;;;;;;;;;5026118;28;20029;-73
2022/07/11 11:51:06;;;;;;;1.30;0.80;;;;;;;;;;5020551;28;20374;-74
2022/07/11 11:53:54;;;;;;;1.20;0.55;;;;;;;;;;5019094;28;20029;-73
2022/07/11 11:56:28;;;;;;;0.98;0.57;;;;;;;;;;5022048;28;20075;-73
2022/07/11 11:59:01;;;;;;;0.85;0.60;;;;;;;;;;5024766;28;20117;-72
2022/07/11 12:01:35;;;;;;;1.10;0.80;;;;;;;;;;5023986;28;20386;-72
2022/07/11 12:04:03;;;;;;;1.25;0.63;;;;;;;;;;5028249;28;20034;-72
2022/07/11 12:06:31;;;;;;;1.23;0.63;;;;;;;;;;5026473;28;20025;-72
2022/07/11 12:09:19;;;;;;;1.27;0.80;;;;;;;;;;5025222;28;20032;-72
2022/07/11 12:14:38;;;;;;;1.35;0.70;;;;;;;;;;5007351;28;20041;-73
2022/07/11 12:17:03;;;;;;;0.80;0.50;;;;;;;;;;5021381;28;20033;-73
2022/07/11 12:19:34;;;;;;;1.83;0.70;;;;;;;;;;5017948;28;20025;-72
2022/07/11 12:22:03;;;;;;;0.65;0.60;;;;;;;;;;5024184;28;20030;-72
2022/07/11 12:24:29;;;;;;;1.33;0.80;;;;;;;;;;5028569;28;20029;-74
2022/07/11 12:26:55;;;;;;;1.55;0.50;;;;;;;;;;5031873;28;20076;-72
2022/07/11 12:29:27;;;;;;;0.82;0.60;;;;;;;;;;5022826;28;20548;-74
2022/07/11 12:32:01;;;;;;;0.93;0.60;;;;;;;;;;5022833;28;20066;-72
2022/07/11 12:34:32;;;;;;;1.60;0.90;;;;;;;;;;5019050;28;20283;-73
2022/07/11 12:37:02;;;;;;;2.10;1.30;;;;;;;;;;5021344;28;20116;-73
2022/07/11 12:39:30;;;;;;;1.70;0.85;;;;;;;;;;5017602;28;20481;-72
2022/07/11 12:41:57;;;;;;;2.00;0.82;;;;;;;;;;5023828;28;20548;-73
2022/07/11 12:47:16;;;;;;;1.63;1.00;;;;;;;;;;5018780;28;20044;-72
2022/07/11 12:49:45;;;;;;;1.40;0.95;;;;;;;;;;5024334;28;20068;-73
2022/07/11 12:52:14;;;;;;;1.30;0.80;;;;;;;;;;5024850;28;20379;-72
2022/07/11 12:54:42;;;;;;;1.27;0.70;;;;;;;;;;5020426;28;20117;-72
2022/07/11 12:57:08;;;;;;;1.65;0.80;;;;;;;;;;5025424;28;20037;-73
2022/07/11 12:59:34;;;;;;;0.90;0.68;;;;;;;;;;5024725;28;20021;-72
2022/07/11 13:02:08;;;;;;;1.00;0.70;;;;;;;;;;5026905;28;20044;-72
2022/07/11 13:04:48;;;;;;;1.10;0.80;;;;;;;;;;5023921;28;20104;-72
2022/07/11 13:10:24;;;;;;;2.22;0.93;;;;;;;;;;5020361;28;20559;-73
2022/07/11 13:12:54;;;;;;;1.00;0.65;;;;;;;;;;5024959;28;20410;-72
2022/07/11 13:15:22;;;;;;;1.10;0.68;;;;;;;;;;5023113;28;20106;-72
2022/07/11 13:17:53;;;;;;;2.97;0.70;;;;;;;;;;5021013;28;20037;-72
2022/07/11 13:20:23;;;;;;;1.17;0.70;;;;;;;;;;5015174;28;20037;-73
2022/07/11 13:22:50;;;;;;;1.38;0.77;;;;;;;;;;5021713;28;20090;-72
2022/07/11 13:25:18;;;;;;;0.70;0.60;;;;;;;;;;5014958;28;20650;-72
2022/07/11 13:27:46;;;;;;;3.38;0.70;;;;;;;;;;5025875;28;20029;-72
2022/07/11 13:30:16;;;;;;;1.73;0.70;;;;;;;;;;5024151;28;20029;-74
2022/07/11 13:32:42;;;;;;;0.73;0.40;;;;;;;;;;5025768;28;20038;-72
2022/07/11 13:35:08;;;;;;;0.70;0.40;;;;;;;;;;5027612;28;20037;-72
2022/07/11 13:37:35;;;;;;;0.90;0.70;;;;;;;;;;5027197;28;20037;-72
2022/07/11 13:40:03;;;;;;;0.50;0.50;;;;;;;;;;5024319;28;20025;-72
2022/07/11 13:42:29;;;;;;;0.80;0.40;;;;;;;;;;5026243;28;20600;-72
2022/07/11 13:44:54;;;;;;;1.10;0.50;;;;;;;;;;5026258;28;20052;-73
2022/07/11 13:47:19;;;;;;;0.70;0.45;;;;;;;;;;5026614;28;20025;-72
2022/07/11 13:49:46;;;;;;;0.65;0.50;;;;;;;;;;5021076;28;20032;-72
2022/07/11 13:52:11;;;;;;;0.88;0.70;;;;;;;;;;5030317;28;20552;-72
2022/07/11 13:54:37;;;;;;;1.63;0.60;;;;;;;;;;5026542;28;20108;-72
2022/07/11 13:57:03;;;;;;;1.60;0.70;;;;;;;;;;5022331;28;20516;-72
2022/07/11 13:59:28;;;;;;;2.35;0.80;;;;;;;;;;5027050;28;20086;-73
2022/07/11 14:01:53;;;;;;;0.70;0.60;;;;;;;;;;5026050;28;20083;-73
2022/07/11 14:04:19;;;;;;;1.13;0.52;;;;;;;;;;5022460;28;20040;-72
2022/07/11 14:06:44;;;;;;;0.75;0.40;;;;;;;;;;5022965;28;20018;-72
2022/07/11 14:09:10;;;;;;;0.45;0.40;;;;;;;;;;5029617;28;20084;-72
2022/07/11 14:11:35;;;;;;;1.23;0.60;;;;;;;;;;5027006;28;20033;-73
2022/07/11 14:14:01;;;;;;;0.65;0.40;;;;;;;;;;5027555;28;20075;-73
2022/07/11 14:16:26;;;;;;;1.27;0.55;;;;;;;;;;5025450;28;20060;-74
2022/07/11 14:18:52;;;;;;;1.05;0.40;;;;;;;;;;5024686;28;20024;-73
2022/07/11 14:21:17;;;;;;;0.40;0.40;;;;;;;;;;5028207;28;20385;-72
2022/07/11 14:23:42;;;;;;;0.43;0.40;;;;;;;;;;5029277;28;20030;-72
2022/07/11 14:26:09;;;;;;;1.77;0.50;;;;;;;;;;5027657;28;20073;-72
2022/07/11 14:28:35;;;;;;;0.60;0.50;;;;;;;;;;5021697;28;20033;-72
2022/07/11 14:31:01;;;;;;;0.60;0.50;;;;;;;;;;5027052;28;20057;-73
2022/07/11 14:33:26;;;;;;;1.05;0.63;;;;;;;;;;5030889;28;20069;-72
2022/07/11 14:35:52;;;;;;;1.13;0.50;;;;;;;;;;5025686;28;20041;-72
2022/07/11 14:38:17;;;;;;;0.77;0.40;;;;;;;;;;5014623;28;20483;-72
2022/07/11 14:40:43;;;;;;;0.43;0.40;;;;;;;;;;5007659;28;20040;-72
2022/07/11 14:43:08;;;;;;;0.80;0.40;;;;;;;;;;5010453;28;20064;-72
2022/07/11 14:45:34;;;;;;;1.33;0.57;;;;;;;;;;5019693;28;20405;-73
2022/07/11 14:47:59;;;;;;;0.80;0.50;;;;;;;;;;5014615;28;20041;-72
2022/07/11 14:50:25;;;;;;;1.23;0.60;;;;;;;;;;5017791;28;20136;-73
2022/07/11 14:52:51;;;;;;;0.77;0.50;;;;;;;;;;5007088;28;20065;-72
2022/07/11 14:55:16;;;;;;;0.93;0.50;;;;;;;;;;5015379;28;20129;-72
2022/07/11 14:57:41;;;;;;;0.70;0.43;;;;;;;;;;5015577;28;20040;-72
2022/07/11 15:00:07;;;;;;;0.77;0.50;;;;;;;;;;5014609;28;20148;-72
2022/07/11 15:05:17;;;;;;;0.82;0.40;;;;;;;;;;5022485;28;20106;-72